sensor_id;sensor_type;location;lat;lon;timestamp;P1;durP1;ratioP1;P2;durP2;ratioP2
21213;SDS011;10764;50.850;2.904;2022-12-07T00:01:22;1081.20;;;970.60;;
21213;SDS011;10764;50.850;2.904;2022-12-07T00:03:51;1089.05;;;976.85;;
21213;SDS011;10764;50.850;2.904;2022-12-07T00:06:19;1041.93;;;935.58;;
21213;SDS011;10764;50.850;2.904;2022-12-07T00:08:47;1056.73;;;949.70;;
21213;SDS011;10764;50.850;2.904;2022-12-07T00:11:15;1067.15;;;961.92;;
21213;SDS011;10764;50.850;2.904;2022-12-07T00:13:46;1075.07;;;968.50;;
21213;SDS011;10764;50.850;2.904;2022-12-07T00:16:18;1071.00;;;964.28;;
21213;SDS011;10764;50.850;2.904;2022-12-07T00:18:46;1065.35;;;957.78;;
21213;SDS011;10764;50.850;2.904;2022-12-07T00:21:15;1070.67;;;962.40;;
21213;SDS011;10764;50.850;2.904;2022-12-07T00:23:47;1069.25;;;961.75;;
21213;SDS011;10764;50.850;2.904;2022-12-07T00:26:20;1068.25;;;960.60;;
21213;SDS011;10764;50.850;2.904;2022-12-07T00:28:52;1069.10;;;961.17;;
21213;SDS011;10764;50.850;2.904;2022-12-07T00:31:21;1067.35;;;959.80;;
21213;SDS011;10764;50.850;2.904;2022-12-07T00:33:50;1066.35;;;957.25;;
21213;SDS011;10764;50.850;2.904;2022-12-07T00:36:18;1061.30;;;956.22;;
21213;SDS011;10764;50.850;2.904;2022-12-07T00:38:52;1073.47;;;964.40;;
21213;SDS011;10764;50.850;2.904;2022-12-07T00:41:25;1076.70;;;966.47;;
21213;SDS011;10764;50.850;2.904;2022-12-07T00:43:53;1068.63;;;959.27;;
21213;SDS011;10764;50.850;2.904;2022-12-07T00:46:20;1072.70;;;963.40;;
21213;SDS011;10764;50.850;2.904;2022-12-07T00:48:47;1070.65;;;960.33;;
21213;SDS011;10764;50.850;2.904;2022-12-07T00:51:16;1073.07;;;963.17;;
21213;SDS011;10764;50.850;2.904;2022-12-07T00:53:44;1071.63;;;961.05;;
21213;SDS011;10764;50.850;2.904;2022-12-07T00:56:12;1068.72;;;959.67;;
21213;SDS011;10764;50.850;2.904;2022-12-07T00:58:48;1065.32;;;955.90;;
21213;SDS011;10764;50.850;2.904;2022-12-07T01:01:17;1072.90;;;962.73;;
21213;SDS011;10764;50.850;2.904;2022-12-07T01:03:44;1069.25;;;960.08;;
21213;SDS011;10764;50.850;2.904;2022-12-07T01:06:13;1071.60;;;961.70;;
21213;SDS011;10764;50.850;2.904;2022-12-07T01:08:43;1072.37;;;961.93;;
21213;SDS011;10764;50.850;2.904;2022-12-07T01:11:11;1068.68;;;959.03;;
21213;SDS011;10764;50.850;2.904;2022-12-07T01:13:41;1072.10;;;961.00;;
21213;SDS011;10764;50.850;2.904;2022-12-07T01:16:09;1080.47;;;969.17;;
21213;SDS011;10764;50.850;2.904;2022-12-07T01:18:38;1081.40;;;968.72;;
21213;SDS011;10764;50.850;2.904;2022-12-07T01:21:07;1087.70;;;974.63;;
21213;SDS011;10764;50.850;2.904;2022-12-07T01:23:39;1088.80;;;974.80;;
21213;SDS011;10764;50.850;2.904;2022-12-07T01:26:06;1089.40;;;974.47;;
21213;SDS011;10764;50.850;2.904;2022-12-07T01:28:36;1089.28;;;976.10;;
21213;SDS011;10764;50.850;2.904;2022-12-07T01:31:04;1084.72;;;970.97;;
21213;SDS011;10764;50.850;2.904;2022-12-07T01:33:41;1084.30;;;969.97;;
21213;SDS011;10764;50.850;2.904;2022-12-07T01:36:20;1084.43;;;970.40;;
21213;SDS011;10764;50.850;2.904;2022-12-07T01:38:54;1086.10;;;971.75;;
21213;SDS011;10764;50.850;2.904;2022-12-07T01:41:24;1087.20;;;973.28;;
21213;SDS011;10764;50.850;2.904;2022-12-07T01:46:41;1078.88;;;967.03;;
21213;SDS011;10764;50.850;2.904;2022-12-07T01:54:49;1082.07;;;969.63;;
21213;SDS011;10764;50.850;2.904;2022-12-07T01:57:20;1079.95;;;968.60;;
21213;SDS011;10764;50.850;2.904;2022-12-07T01:59:48;1083.65;;;970.00;;
21213;SDS011;10764;50.850;2.904;2022-12-07T02:02:23;1084.20;;;970.05;;
21213;SDS011;10764;50.850;2.904;2022-12-07T02:04:59;1083.90;;;969.93;;
21213;SDS011;10764;50.850;2.904;2022-12-07T02:07:27;1083.95;;;970.03;;
21213;SDS011;10764;50.850;2.904;2022-12-07T02:09:54;1084.68;;;970.22;;
21213;SDS011;10764;50.850;2.904;2022-12-07T02:12:21;1082.33;;;968.30;;
21213;SDS011;10764;50.850;2.904;2022-12-07T02:14:51;1083.83;;;969.57;;
21213;SDS011;10764;50.850;2.904;2022-12-07T02:25:50;1082.95;;;970.83;;
21213;SDS011;10764;50.850;2.904;2022-12-07T02:28:36;1080.07;;;965.77;;
21213;SDS011;10764;50.850;2.904;2022-12-07T02:31:15;1077.57;;;963.28;;
21213;SDS011;10764;50.850;2.904;2022-12-07T02:33:50;1080.47;;;965.30;;
21213;SDS011;10764;50.850;2.904;2022-12-07T02:36:57;1085.32;;;970.25;;
21213;SDS011;10764;50.850;2.904;2022-12-07T02:39:43;1075.38;;;962.85;;
21213;SDS011;10764;50.850;2.904;2022-12-07T02:42:41;1067.38;;;954.20;;
21213;SDS011;10764;50.850;2.904;2022-12-07T02:45:13;1082.43;;;970.92;;
21213;SDS011;10764;50.850;2.904;2022-12-07T02:47:43;1043.55;;;934.70;;
21213;SDS011;10764;50.850;2.904;2022-12-07T02:50:10;1043.97;;;933.42;;
21213;SDS011;10764;50.850;2.904;2022-12-07T02:52:38;1042.78;;;931.85;;
21213;SDS011;10764;50.850;2.904;2022-12-07T02:55:05;1046.88;;;935.25;;
21213;SDS011;10764;50.850;2.904;2022-12-07T03:00:22;1046.97;;;934.10;;
21213;SDS011;10764;50.850;2.904;2022-12-07T03:08:44;1052.05;;;938.15;;
21213;SDS011;10764;50.850;2.904;2022-12-07T03:11:34;1053.65;;;939.63;;
21213;SDS011;10764;50.850;2.904;2022-12-07T03:14:15;1047.53;;;934.83;;
21213;SDS011;10764;50.850;2.904;2022-12-07T03:17:07;1045.68;;;931.78;;
21213;SDS011;10764;50.850;2.904;2022-12-07T03:19:42;1051.63;;;937.63;;
21213;SDS011;10764;50.850;2.904;2022-12-07T03:22:12;1053.20;;;938.40;;
21213;SDS011;10764;50.850;2.904;2022-12-07T03:24:51;1051.45;;;935.63;;
21213;SDS011;10764;50.850;2.904;2022-12-07T03:27:21;1049.75;;;939.38;;
21213;SDS011;10764;50.850;2.904;2022-12-07T03:30:00;1058.03;;;944.83;;
21213;SDS011;10764;50.850;2.904;2022-12-07T03:32:35;1053.53;;;941.50;;
21213;SDS011;10764;50.850;2.904;2022-12-07T03:35:03;1059.22;;;946.65;;
21213;SDS011;10764;50.850;2.904;2022-12-07T03:42:51;1061.65;;;947.17;;
21213;SDS011;10764;50.850;2.904;2022-12-07T03:45:20;1059.78;;;945.17;;
21213;SDS011;10764;50.850;2.904;2022-12-07T03:47:54;1059.55;;;946.03;;
21213;SDS011;10764;50.850;2.904;2022-12-07T03:50:38;1056.50;;;947.08;;
21213;SDS011;10764;50.850;2.904;2022-12-07T03:53:32;1068.18;;;958.38;;
21213;SDS011;10764;50.850;2.904;2022-12-07T03:56:05;1075.10;;;962.95;;
21213;SDS011;10764;50.850;2.904;2022-12-07T03:58:34;1068.07;;;960.67;;
21213;SDS011;10764;50.850;2.904;2022-12-07T04:01:01;1072.00;;;963.78;;
21213;SDS011;10764;50.850;2.904;2022-12-07T04:03:27;1082.35;;;971.47;;
21213;SDS011;10764;50.850;2.904;2022-12-07T04:05:54;1071.55;;;961.10;;
21213;SDS011;10764;50.850;2.904;2022-12-07T04:08:21;1076.10;;;965.30;;
21213;SDS011;10764;50.850;2.904;2022-12-07T04:10:48;1066.90;;;954.05;;
21213;SDS011;10764;50.850;2.904;2022-12-07T04:13:15;1067.97;;;957.63;;
21213;SDS011;10764;50.850;2.904;2022-12-07T04:15:43;1058.63;;;949.35;;
21213;SDS011;10764;50.850;2.904;2022-12-07T04:18:09;1069.60;;;956.70;;
21213;SDS011;10764;50.850;2.904;2022-12-07T04:20:36;1060.45;;;949.97;;
21213;SDS011;10764;50.850;2.904;2022-12-07T04:23:03;1071.72;;;959.78;;
21213;SDS011;10764;50.850;2.904;2022-12-07T04:25:30;1064.25;;;952.58;;
21213;SDS011;10764;50.850;2.904;2022-12-07T04:27:57;1053.25;;;942.25;;
21213;SDS011;10764;50.850;2.904;2022-12-07T04:30:23;1069.28;;;956.05;;
21213;SDS011;10764;50.850;2.904;2022-12-07T04:32:50;1071.03;;;959.70;;
21213;SDS011;10764;50.850;2.904;2022-12-07T04:35:18;1075.45;;;964.55;;
21213;SDS011;10764;50.850;2.904;2022-12-07T04:37:45;1081.65;;;968.72;;
21213;SDS011;10764;50.850;2.904;2022-12-07T04:40:11;1079.20;;;965.38;;
21213;SDS011;10764;50.850;2.904;2022-12-07T04:42:40;1073.20;;;960.83;;
21213;SDS011;10764;50.850;2.904;2022-12-07T04:45:07;1077.70;;;966.28;;
21213;SDS011;10764;50.850;2.904;2022-12-07T04:47:34;1075.30;;;963.70;;
21213;SDS011;10764;50.850;2.904;2022-12-07T04:50:01;1070.55;;;960.70;;
21213;SDS011;10764;50.850;2.904;2022-12-07T04:52:29;1074.75;;;963.38;;
21213;SDS011;10764;50.850;2.904;2022-12-07T04:54:56;1061.72;;;954.55;;
21213;SDS011;10764;50.850;2.904;2022-12-07T04:57:22;1075.47;;;968.35;;
21213;SDS011;10764;50.850;2.904;2022-12-07T04:59:49;1074.63;;;965.53;;
21213;SDS011;10764;50.850;2.904;2022-12-07T05:02:16;1074.22;;;964.80;;
21213;SDS011;10764;50.850;2.904;2022-12-07T05:04:43;1062.93;;;949.72;;
21213;SDS011;10764;50.850;2.904;2022-12-07T05:07:09;1068.28;;;957.10;;
21213;SDS011;10764;50.850;2.904;2022-12-07T05:09:36;1066.10;;;954.97;;
21213;SDS011;10764;50.850;2.904;2022-12-07T05:12:03;1070.18;;;960.88;;
21213;SDS011;10764;50.850;2.904;2022-12-07T05:14:30;1061.00;;;952.73;;
21213;SDS011;10764;50.850;2.904;2022-12-07T05:16:56;1050.45;;;943.92;;
21213;SDS011;10764;50.850;2.904;2022-12-07T05:19:23;1050.60;;;942.38;;
21213;SDS011;10764;50.850;2.904;2022-12-07T05:21:52;1042.70;;;934.35;;
21213;SDS011;10764;50.850;2.904;2022-12-07T05:24:19;1054.85;;;945.85;;
21213;SDS011;10764;50.850;2.904;2022-12-07T05:26:46;1056.28;;;949.65;;
21213;SDS011;10764;50.850;2.904;2022-12-07T05:29:13;1052.73;;;946.67;;
21213;SDS011;10764;50.850;2.904;2022-12-07T05:31:42;1051.25;;;943.53;;
21213;SDS011;10764;50.850;2.904;2022-12-07T05:34:11;1046.60;;;941.45;;
21213;SDS011;10764;50.850;2.904;2022-12-07T05:36:38;1049.15;;;942.70;;
21213;SDS011;10764;50.850;2.904;2022-12-07T05:39:05;1045.38;;;940.17;;
21213;SDS011;10764;50.850;2.904;2022-12-07T05:41:33;1050.40;;;945.00;;
21213;SDS011;10764;50.850;2.904;2022-12-07T05:44:18;1064.07;;;955.97;;
21213;SDS011;10764;50.850;2.904;2022-12-07T05:46:45;1061.57;;;952.70;;
21213;SDS011;10764;50.850;2.904;2022-12-07T05:49:12;1050.53;;;942.53;;
21213;SDS011;10764;50.850;2.904;2022-12-07T05:51:38;1047.72;;;939.00;;
21213;SDS011;10764;50.850;2.904;2022-12-07T05:54:05;1051.43;;;943.88;;
21213;SDS011;10764;50.850;2.904;2022-12-07T05:56:32;1048.80;;;939.17;;
21213;SDS011;10764;50.850;2.904;2022-12-07T05:58:59;1061.88;;;952.35;;
21213;SDS011;10764;50.850;2.904;2022-12-07T06:01:44;1065.25;;;955.88;;
21213;SDS011;10764;50.850;2.904;2022-12-07T06:04:11;1060.18;;;951.75;;
21213;SDS011;10764;50.850;2.904;2022-12-07T06:06:37;1061.82;;;952.63;;
21213;SDS011;10764;50.850;2.904;2022-12-07T06:09:04;1055.50;;;947.30;;
21213;SDS011;10764;50.850;2.904;2022-12-07T06:11:32;1052.80;;;944.90;;
21213;SDS011;10764;50.850;2.904;2022-12-07T06:14:17;1056.88;;;947.75;;
21213;SDS011;10764;50.850;2.904;2022-12-07T06:16:44;1062.22;;;951.13;;
21213;SDS011;10764;50.850;2.904;2022-12-07T06:19:12;1062.97;;;952.58;;
21213;SDS011;10764;50.850;2.904;2022-12-07T06:21:39;1067.13;;;955.80;;
21213;SDS011;10764;50.850;2.904;2022-12-07T06:24:06;1066.18;;;954.83;;
21213;SDS011;10764;50.850;2.904;2022-12-07T06:26:33;1070.63;;;958.60;;
21213;SDS011;10764;50.850;2.904;2022-12-07T06:29:00;1068.17;;;955.93;;
21213;SDS011;10764;50.850;2.904;2022-12-07T06:31:27;1074.72;;;961.75;;
21213;SDS011;10764;50.850;2.904;2022-12-07T06:33:58;1071.55;;;958.55;;
21213;SDS011;10764;50.850;2.904;2022-12-07T06:36:26;1079.30;;;966.65;;
21213;SDS011;10764;50.850;2.904;2022-12-07T06:38:53;1077.00;;;966.50;;
21213;SDS011;10764;50.850;2.904;2022-12-07T06:41:20;1080.22;;;966.97;;
21213;SDS011;10764;50.850;2.904;2022-12-07T06:43:47;1085.22;;;970.70;;
21213;SDS011;10764;50.850;2.904;2022-12-07T06:46:21;1090.22;;;975.55;;
21213;SDS011;10764;50.850;2.904;2022-12-07T06:48:48;1081.25;;;966.97;;
21213;SDS011;10764;50.850;2.904;2022-12-07T06:51:15;1071.22;;;957.17;;
21213;SDS011;10764;50.850;2.904;2022-12-07T06:53:44;1077.13;;;962.60;;
21213;SDS011;10764;50.850;2.904;2022-12-07T06:56:11;1080.40;;;965.88;;
21213;SDS011;10764;50.850;2.904;2022-12-07T06:58:38;1080.25;;;966.22;;
21213;SDS011;10764;50.850;2.904;2022-12-07T07:01:12;1079.03;;;968.17;;
21213;SDS011;10764;50.850;2.904;2022-12-07T07:03:40;1079.00;;;964.92;;
21213;SDS011;10764;50.850;2.904;2022-12-07T07:06:07;1079.65;;;965.30;;
21213;SDS011;10764;50.850;2.904;2022-12-07T07:08:35;1073.85;;;959.97;;
21213;SDS011;10764;50.850;2.904;2022-12-07T07:11:03;1074.27;;;960.60;;
21213;SDS011;10764;50.850;2.904;2022-12-07T07:13:30;1071.38;;;958.33;;
21213;SDS011;10764;50.850;2.904;2022-12-07T07:15:57;1082.27;;;967.73;;
21213;SDS011;10764;50.850;2.904;2022-12-07T07:18:25;1083.13;;;968.05;;
21213;SDS011;10764;50.850;2.904;2022-12-07T07:20:52;1087.40;;;971.50;;
21213;SDS011;10764;50.850;2.904;2022-12-07T07:23:21;1082.05;;;967.97;;
21213;SDS011;10764;50.850;2.904;2022-12-07T07:25:48;1077.63;;;963.95;;
21213;SDS011;10764;50.850;2.904;2022-12-07T07:28:16;1075.75;;;962.13;;
21213;SDS011;10764;50.850;2.904;2022-12-07T07:30:43;1073.97;;;959.63;;
21213;SDS011;10764;50.850;2.904;2022-12-07T07:33:10;1057.70;;;943.25;;
21213;SDS011;10764;50.850;2.904;2022-12-07T07:35:37;1060.90;;;946.80;;
21213;SDS011;10764;50.850;2.904;2022-12-07T07:38:05;1060.45;;;947.03;;
21213;SDS011;10764;50.850;2.904;2022-12-07T07:40:33;1052.22;;;938.40;;
21213;SDS011;10764;50.850;2.904;2022-12-07T07:43:02;1057.93;;;943.75;;
21213;SDS011;10764;50.850;2.904;2022-12-07T07:45:29;1056.85;;;942.70;;
21213;SDS011;10764;50.850;2.904;2022-12-07T07:47:56;1058.63;;;944.63;;
21213;SDS011;10764;50.850;2.904;2022-12-07T07:50:24;1058.03;;;944.45;;
21213;SDS011;10764;50.850;2.904;2022-12-07T07:52:51;1056.05;;;942.15;;
21213;SDS011;10764;50.850;2.904;2022-12-07T07:55:18;1054.88;;;940.83;;
21213;SDS011;10764;50.850;2.904;2022-12-07T07:57:46;1058.83;;;944.83;;
21213;SDS011;10764;50.850;2.904;2022-12-07T08:00:20;1056.20;;;941.13;;
21213;SDS011;10764;50.850;2.904;2022-12-07T08:02:47;1061.80;;;949.65;;
21213;SDS011;10764;50.850;2.904;2022-12-07T08:05:14;1055.05;;;941.80;;
21213;SDS011;10764;50.850;2.904;2022-12-07T08:07:43;1069.20;;;955.38;;
21213;SDS011;10764;50.850;2.904;2022-12-07T08:10:10;1060.00;;;947.13;;
21213;SDS011;10764;50.850;2.904;2022-12-07T08:12:40;1050.95;;;939.97;;
21213;SDS011;10764;50.850;2.904;2022-12-07T08:15:28;1053.97;;;941.95;;
21213;SDS011;10764;50.850;2.904;2022-12-07T08:17:56;1047.75;;;937.03;;
21213;SDS011;10764;50.850;2.904;2022-12-07T08:20:23;1060.70;;;948.47;;
21213;SDS011;10764;50.850;2.904;2022-12-07T08:22:51;1056.13;;;943.90;;
21213;SDS011;10764;50.850;2.904;2022-12-07T08:25:18;1052.28;;;939.78;;
21213;SDS011;10764;50.850;2.904;2022-12-07T08:27:44;1057.13;;;945.45;;
21213;SDS011;10764;50.850;2.904;2022-12-07T08:30:12;1065.13;;;952.22;;
21213;SDS011;10764;50.850;2.904;2022-12-07T08:32:39;1058.50;;;946.80;;
21213;SDS011;10764;50.850;2.904;2022-12-07T08:35:06;1059.10;;;946.80;;
21213;SDS011;10764;50.850;2.904;2022-12-07T08:37:33;1053.47;;;941.90;;
21213;SDS011;10764;50.850;2.904;2022-12-07T08:40:01;1055.68;;;945.97;;
21213;SDS011;10764;50.850;2.904;2022-12-07T08:42:29;1057.90;;;946.58;;
21213;SDS011;10764;50.850;2.904;2022-12-07T08:45:05;1064.40;;;952.28;;
21213;SDS011;10764;50.850;2.904;2022-12-07T08:47:36;1073.60;;;961.17;;
21213;SDS011;10764;50.850;2.904;2022-12-07T08:50:07;1075.57;;;962.58;;
21213;SDS011;10764;50.850;2.904;2022-12-07T08:52:35;1081.32;;;967.42;;
21213;SDS011;10764;50.850;2.904;2022-12-07T08:55:03;1078.65;;;965.95;;
21213;SDS011;10764;50.850;2.904;2022-12-07T08:57:32;1081.47;;;967.10;;
21213;SDS011;10764;50.850;2.904;2022-12-07T09:00:02;1086.85;;;972.30;;
21213;SDS011;10764;50.850;2.904;2022-12-07T09:02:31;1078.25;;;965.13;;
21213;SDS011;10764;50.850;2.904;2022-12-07T09:04:58;1080.45;;;966.75;;
21213;SDS011;10764;50.850;2.904;2022-12-07T09:07:25;1081.70;;;969.53;;
21213;SDS011;10764;50.850;2.904;2022-12-07T09:09:53;1083.40;;;970.47;;
21213;SDS011;10764;50.850;2.904;2022-12-07T09:12:20;1087.65;;;973.50;;
21213;SDS011;10764;50.850;2.904;2022-12-07T09:14:46;1082.75;;;969.83;;
21213;SDS011;10764;50.850;2.904;2022-12-07T09:17:15;1080.30;;;966.60;;
21213;SDS011;10764;50.850;2.904;2022-12-07T09:19:42;1085.22;;;971.55;;
21213;SDS011;10764;50.850;2.904;2022-12-07T09:22:09;1082.25;;;968.28;;
21213;SDS011;10764;50.850;2.904;2022-12-07T09:24:36;1080.93;;;966.83;;
21213;SDS011;10764;50.850;2.904;2022-12-07T09:27:03;1061.53;;;949.22;;
21213;SDS011;10764;50.850;2.904;2022-12-07T09:29:30;1062.00;;;948.80;;
21213;SDS011;10764;50.850;2.904;2022-12-07T09:31:57;1067.95;;;955.30;;
21213;SDS011;10764;50.850;2.904;2022-12-07T09:34:24;1069.33;;;956.60;;
21213;SDS011;10764;50.850;2.904;2022-12-07T09:36:52;1068.75;;;956.28;;
21213;SDS011;10764;50.850;2.904;2022-12-07T09:39:19;1070.45;;;958.30;;
21213;SDS011;10764;50.850;2.904;2022-12-07T09:41:46;1074.18;;;960.58;;
21213;SDS011;10764;50.850;2.904;2022-12-07T09:44:13;1069.23;;;956.00;;
21213;SDS011;10764;50.850;2.904;2022-12-07T09:46:44;1071.63;;;957.75;;
21213;SDS011;10764;50.850;2.904;2022-12-07T09:49:12;1073.32;;;959.47;;
21213;SDS011;10764;50.850;2.904;2022-12-07T09:51:45;1067.43;;;953.40;;
21213;SDS011;10764;50.850;2.904;2022-12-07T09:54:15;1065.03;;;951.38;;
21213;SDS011;10764;50.850;2.904;2022-12-07T09:56:43;1074.80;;;961.42;;
21213;SDS011;10764;50.850;2.904;2022-12-07T09:59:12;1067.05;;;953.95;;
21213;SDS011;10764;50.850;2.904;2022-12-07T10:01:44;1068.63;;;954.85;;
21213;SDS011;10764;50.850;2.904;2022-12-07T10:06:50;1070.30;;;955.20;;
21213;SDS011;10764;50.850;2.904;2022-12-07T10:09:18;1073.72;;;958.80;;
21213;SDS011;10764;50.850;2.904;2022-12-07T10:14:29;1084.40;;;967.67;;
21213;SDS011;10764;50.850;2.904;2022-12-07T10:17:39;1073.00;;;956.58;;
21213;SDS011;10764;50.850;2.904;2022-12-07T10:23:02;1075.47;;;962.87;;
21213;SDS011;10764;50.850;2.904;2022-12-07T10:25:35;1076.80;;;961.63;;
21213;SDS011;10764;50.850;2.904;2022-12-07T10:33:33;1101.47;;;983.67;;
21213;SDS011;10764;50.850;2.904;2022-12-07T10:38:49;1083.15;;;967.90;;
21213;SDS011;10764;50.850;2.904;2022-12-07T10:41:20;1094.35;;;976.50;;
21213;SDS011;10764;50.850;2.904;2022-12-07T10:43:51;1087.18;;;971.30;;
21213;SDS011;10764;50.850;2.904;2022-12-07T10:49:46;1088.30;;;972.75;;
21213;SDS011;10764;50.850;2.904;2022-12-07T11:00:46;1090.25;;;974.28;;
21213;SDS011;10764;50.850;2.904;2022-12-07T11:09:03;1095.45;;;978.08;;
21213;SDS011;10764;50.850;2.904;2022-12-07T11:15:04;1096.90;;;982.15;;
21213;SDS011;10764;50.850;2.904;2022-12-07T11:20:34;1095.13;;;980.65;;
21213;SDS011;10764;50.850;2.904;2022-12-07T11:23:21;1099.30;;;984.28;;
21213;SDS011;10764;50.850;2.904;2022-12-07T11:26:21;1099.85;;;981.22;;
21213;SDS011;10764;50.850;2.904;2022-12-07T11:29:29;1099.75;;;983.22;;
21213;SDS011;10764;50.850;2.904;2022-12-07T11:38:07;1092.47;;;978.58;;
21213;SDS011;10764;50.850;2.904;2022-12-07T11:40:40;1091.85;;;977.08;;
21213;SDS011;10764;50.850;2.904;2022-12-07T11:43:28;1094.60;;;979.70;;
21213;SDS011;10764;50.850;2.904;2022-12-07T11:46:04;1098.30;;;982.70;;
21213;SDS011;10764;50.850;2.904;2022-12-07T11:48:38;1092.10;;;978.33;;
21213;SDS011;10764;50.850;2.904;2022-12-07T11:51:11;1094.30;;;979.20;;
21213;SDS011;10764;50.850;2.904;2022-12-07T11:53:49;1093.88;;;977.15;;
21213;SDS011;10764;50.850;2.904;2022-12-07T11:56:22;1093.05;;;975.05;;
21213;SDS011;10764;50.850;2.904;2022-12-07T11:58:53;1093.93;;;975.42;;
21213;SDS011;10764;50.850;2.904;2022-12-07T12:06:36;1097.72;;;978.85;;
21213;SDS011;10764;50.850;2.904;2022-12-07T12:20:41;1100.00;;;981.33;;
21213;SDS011;10764;50.850;2.904;2022-12-07T12:23:20;1097.95;;;983.35;;
21213;SDS011;10764;50.850;2.904;2022-12-07T12:25:52;1098.78;;;980.55;;
21213;SDS011;10764;50.850;2.904;2022-12-07T12:33:55;1093.23;;;977.80;;
21213;SDS011;10764;50.850;2.904;2022-12-07T12:36:43;1097.70;;;981.40;;
21213;SDS011;10764;50.850;2.904;2022-12-07T12:39:13;1094.25;;;978.08;;
21213;SDS011;10764;50.850;2.904;2022-12-07T12:57:37;1097.35;;;980.20;;
21213;SDS011;10764;50.850;2.904;2022-12-07T13:02:53;1095.50;;;977.72;;
21213;SDS011;10764;50.850;2.904;2022-12-07T13:05:25;1090.40;;;971.80;;
21213;SDS011;10764;50.850;2.904;2022-12-07T13:07:58;1086.95;;;969.67;;
21213;SDS011;10764;50.850;2.904;2022-12-07T13:21:01;1095.45;;;980.33;;
21213;SDS011;10764;50.850;2.904;2022-12-07T13:23:31;1090.93;;;976.00;;
21213;SDS011;10764;50.850;2.904;2022-12-07T13:28:48;1095.67;;;979.97;;
21213;SDS011;10764;50.850;2.904;2022-12-07T13:37:15;1102.28;;;986.00;;
21213;SDS011;10764;50.850;2.904;2022-12-07T13:39:57;1111.00;;;992.33;;
21213;SDS011;10764;50.850;2.904;2022-12-07T13:42:27;1098.38;;;981.38;;
21213;SDS011;10764;50.850;2.904;2022-12-07T13:44:57;1100.17;;;983.30;;
21213;SDS011;10764;50.850;2.904;2022-12-07T13:50:27;1099.10;;;981.40;;
21213;SDS011;10764;50.850;2.904;2022-12-07T13:52:58;1104.25;;;984.45;;
21213;SDS011;10764;50.850;2.904;2022-12-07T13:55:27;1105.15;;;985.60;;
21213;SDS011;10764;50.850;2.904;2022-12-07T13:57:55;1092.88;;;973.63;;
21213;SDS011;10764;50.850;2.904;2022-12-07T14:00:23;1095.25;;;976.63;;
21213;SDS011;10764;50.850;2.904;2022-12-07T14:02:56;1092.90;;;974.70;;
21213;SDS011;10764;50.850;2.904;2022-12-07T14:05:31;1106.07;;;988.17;;
21213;SDS011;10764;50.850;2.904;2022-12-07T14:08:01;1101.43;;;984.42;;
21213;SDS011;10764;50.850;2.904;2022-12-07T14:13:01;1105.15;;;988.05;;
21213;SDS011;10764;50.850;2.904;2022-12-07T14:17:58;1097.05;;;982.45;;
21213;SDS011;10764;50.850;2.904;2022-12-07T14:20:33;1096.65;;;982.05;;
21213;SDS011;10764;50.850;2.904;2022-12-07T14:23:00;1104.30;;;988.70;;
21213;SDS011;10764;50.850;2.904;2022-12-07T14:25:48;1099.93;;;983.97;;
21213;SDS011;10764;50.850;2.904;2022-12-07T14:28:30;1103.28;;;987.17;;
21213;SDS011;10764;50.850;2.904;2022-12-07T14:30:59;1104.25;;;987.47;;
21213;SDS011;10764;50.850;2.904;2022-12-07T14:33:27;1101.95;;;986.33;;
21213;SDS011;10764;50.850;2.904;2022-12-07T14:35:54;1103.45;;;987.38;;
21213;SDS011;10764;50.850;2.904;2022-12-07T14:38:24;1103.85;;;987.38;;
21213;SDS011;10764;50.850;2.904;2022-12-07T14:40:52;1106.22;;;989.92;;
21213;SDS011;10764;50.850;2.904;2022-12-07T14:43:20;1102.03;;;986.72;;
21213;SDS011;10764;50.850;2.904;2022-12-07T14:45:47;1108.63;;;992.17;;
21213;SDS011;10764;50.850;2.904;2022-12-07T14:48:15;1112.82;;;997.00;;
21213;SDS011;10764;50.850;2.904;2022-12-07T14:51:02;1103.83;;;987.00;;
21213;SDS011;10764;50.850;2.904;2022-12-07T14:53:50;1107.40;;;990.65;;
21213;SDS011;10764;50.850;2.904;2022-12-07T14:56:23;1108.10;;;991.13;;
21213;SDS011;10764;50.850;2.904;2022-12-07T14:58:51;1101.97;;;986.17;;
21213;SDS011;10764;50.850;2.904;2022-12-07T15:01:17;1103.90;;;987.50;;
21213;SDS011;10764;50.850;2.904;2022-12-07T15:03:44;1099.93;;;985.13;;
21213;SDS011;10764;50.850;2.904;2022-12-07T15:06:15;1094.10;;;980.75;;
21213;SDS011;10764;50.850;2.904;2022-12-07T15:08:43;1104.05;;;989.65;;
21213;SDS011;10764;50.850;2.904;2022-12-07T15:11:14;1105.57;;;992.28;;
21213;SDS011;10764;50.850;2.904;2022-12-07T15:13:42;1099.78;;;986.42;;
21213;SDS011;10764;50.850;2.904;2022-12-07T15:16:29;1099.30;;;987.17;;
21213;SDS011;10764;50.850;2.904;2022-12-07T15:19:17;1103.28;;;991.33;;
21213;SDS011;10764;50.850;2.904;2022-12-07T15:21:58;1103.40;;;991.08;;
21213;SDS011;10764;50.850;2.904;2022-12-07T15:24:26;1109.60;;;991.67;;
21213;SDS011;10764;50.850;2.904;2022-12-07T15:26:53;1104.88;;;986.03;;
21213;SDS011;10764;50.850;2.904;2022-12-07T15:29:20;1109.82;;;989.35;;
21213;SDS011;10764;50.850;2.904;2022-12-07T15:31:52;1109.55;;;987.50;;
21213;SDS011;10764;50.850;2.904;2022-12-07T15:34:26;1104.68;;;982.20;;
21213;SDS011;10764;50.850;2.904;2022-12-07T15:37:02;1106.47;;;982.05;;
21213;SDS011;10764;50.850;2.904;2022-12-07T15:39:29;1098.40;;;976.60;;
21213;SDS011;10764;50.850;2.904;2022-12-07T15:41:56;1101.18;;;979.35;;
21213;SDS011;10764;50.850;2.904;2022-12-07T15:44:23;1103.22;;;982.85;;
21213;SDS011;10764;50.850;2.904;2022-12-07T15:47:08;1105.03;;;984.35;;
21213;SDS011;10764;50.850;2.904;2022-12-07T15:49:35;1104.68;;;984.35;;
21213;SDS011;10764;50.850;2.904;2022-12-07T15:52:02;1104.88;;;984.47;;
21213;SDS011;10764;50.850;2.904;2022-12-07T15:54:29;1109.60;;;989.33;;
21213;SDS011;10764;50.850;2.904;2022-12-07T15:56:56;1110.53;;;990.78;;
21213;SDS011;10764;50.850;2.904;2022-12-07T15:59:23;1105.90;;;986.63;;
21213;SDS011;10764;50.850;2.904;2022-12-07T16:01:52;1105.25;;;986.33;;
21213;SDS011;10764;50.850;2.904;2022-12-07T16:04:21;1109.85;;;990.15;;
21213;SDS011;10764;50.850;2.904;2022-12-07T16:06:47;1111.70;;;993.17;;
21213;SDS011;10764;50.850;2.904;2022-12-07T16:09:16;1105.80;;;987.15;;
21213;SDS011;10764;50.850;2.904;2022-12-07T16:11:43;1098.50;;;983.63;;
21213;SDS011;10764;50.850;2.904;2022-12-07T16:14:10;1096.05;;;981.13;;
21213;SDS011;10764;50.850;2.904;2022-12-07T16:16:37;1086.85;;;975.55;;
21213;SDS011;10764;50.850;2.904;2022-12-07T16:19:06;1084.93;;;975.37;;
21213;SDS011;10764;50.850;2.904;2022-12-07T16:21:35;1090.20;;;981.50;;
21213;SDS011;10764;50.850;2.904;2022-12-07T16:24:02;1083.18;;;974.70;;
21213;SDS011;10764;50.850;2.904;2022-12-07T16:26:29;1084.88;;;975.67;;
21213;SDS011;10764;50.850;2.904;2022-12-07T16:28:56;1083.75;;;965.53;;